x

Grand Traverse Light, Mi (gtlm4) Weather Station

5:40pm - Thu 30th Oct 2014 All times are CDT. -5 hours from GMT.

  • Wind
    18mph, 22mph gusts
  • Air Temp 46°f
  • Sea Pressure 1015.9mb
  • Grand Traverse Light, Mi
  • Grand Traverse Light, Mi

More Historic Weather Station data

Upgrade to MSW Pro to gain access to the past 30 days of data for over 8000 Wavebouys and Weather Stations around the globe.

Join Pro

Comparision Forecast

View Surf forecast
   
Thu 10/30 5:40pm 18 22 mph 1015.9mb 46f
5:30pm 18 23 mph 1015.9mb 46f
5:20pm 18 23 mph 1015.9mb 47f
5:10pm 21 23 mph 1015.9mb 47f
5:00pm 21 24 mph 1015.9mb 47f
4:40pm 18 23 mph 1015.9mb 47f
4:30pm 20 23 mph 1015.9mb 47f
4:20pm 20 23 mph 1016.3mb 47f
4:10pm 18 23 mph 1016.3mb 47f
4:00pm 20 24 mph 1016.3mb 47f
3:40pm 21 24 mph 1016.3mb 47f
3:30pm 21 24 mph 1016.3mb 47f
3:20pm 20 23 mph 1016.3mb 47f
3:10pm 21 22 mph 1016.3mb 47f
3:00pm 17 21 mph 1016.3mb 47f
2:40pm 17 21 mph 1016.6mb 47f
2:30pm 17 20 mph 1016.6mb 47f
2:20pm 17 22 mph 1016.6mb 47f
2:10pm 18 22 mph 1016.6mb 47f
2:00pm 20 22 mph 1016.6mb 47f
1:40pm 14 18 mph 1016.9mb 47f
1:30pm 14 18 mph 1016.9mb 47f
1:20pm 16 20 mph 1016.9mb 47f
1:10pm 15 17 mph 1017.3mb 46f
1:00pm 15 17 mph 1017.3mb 46f
12:40pm 14 18 mph 1017.6mb 46f
12:30pm 13 17 mph 1017.6mb 47f
12:20pm 14 18 mph 1017.9mb 47f
12:10pm 17 21 mph 1017.9mb 46f
12:00pm 16 20 mph 1017.9mb 47f
11:40am 15 17 mph 1017.9mb 47f
11:30am 15 17 mph 1017.9mb 47f
11:20am 6 10 mph 1018.3mb 47f
11:10am 7 11 mph 1018.3mb 48f
11:00am 5 7 mph 1018.3mb 48f
10:40am 5 7 mph 1018.3mb 46f
10:30am 3 7 mph 1018.6mb 45f
10:20am 2 5 mph 1018.6mb 45f
10:10am 2 5 mph 1018.6mb 44f
10:00am 1 6 mph 1018.6mb 44f
9:40am 2 7 mph 1018.6mb 43f
9:30am 2 6 mph 1019mb 43f
9:20am 5 7 mph 1019mb 43f
9:10am 5 7 mph 1019mb 43f
9:00am 5 8 mph 1019mb 43f
8:40am 3 7 mph 1019mb 42f
8:30am 3 6 mph 1019mb 42f
8:20am 2 6 mph 1019mb 42f
8:10am 5 9 mph 1019mb 42f
8:00am 5 8 mph 1019.3mb 42f
7:40am 5 6 mph 1019.3mb 42f
7:30am 2 6 mph 1019mb 42f
7:20am 2 3 mph 1019.3mb 42f
7:10am 2 3 mph 1019.3mb 42f
7:00am 2 3 mph 1019mb 42f
6:40am 2 5 mph 1019mb 42f
6:30am 2 3 mph 1019mb 42f
6:20am 2 5 mph 1019mb 42f
6:10am 2 5 mph 1019mb 42f
6:00am 2 5 mph 1019mb 42f
5:40am 2 6 mph 1019mb 42f
5:30am 2 3 mph 1019mb 42f
5:20am 2 3 mph 1019mb 42f
5:10am  -  3 mph 1019mb 42f
5:00am  -  5 mph 1019mb 42f
4:40am 2 5 mph 1019mb 43f
4:30am 5 6 mph 1019mb 43f
4:20am 2 5 mph 1018.6mb 43f
4:10am 3 6 mph 1019mb 43f
4:00am 3 6 mph 1019mb 43f
3:40am 3 7 mph 1019mb 43f
3:30am 5 8 mph 1019mb 44f
3:20am 5 7 mph 1019mb 44f
3:10am 5 8 mph 1019mb 43f
3:00am 6 8 mph 1019mb 43f
2:40am 3 7 mph 1019.3mb 43f
2:30am 6 10 mph 1019.3mb 44f
2:20am 8 10 mph 1019.6mb 44f
2:10am 8 11 mph 1019.3mb 44f
2:00am 7 11 mph 1019.6mb 43f
1:40am 9 11 mph 1019.3mb 44f
1:30am 9 11 mph 1019.3mb 43f
1:20am 7 10 mph 1019.6mb 43f
1:10am 8 11 mph 1019.6mb 43f
1:00am 8 10 mph 1019.6mb 43f
12:40am 8 11 mph 1019.6mb 43f
12:30am 8 16 mph 1020mb 43f
12:20am 9 14 mph 1019.6mb 43f
12:10am 8 11 mph 1019.6mb 43f
12:00am 9 14 mph 1019.6mb 43f
Wed 10/29 11:40pm 10 14 mph 1019.6mb 43f
11:30pm 10 14 mph 1019.6mb 43f
11:20pm 10 14 mph 1019.6mb 43f
11:10pm 8 14 mph 1019.6mb 43f
11:00pm 10 14 mph 1019.3mb 43f
10:40pm 10 15 mph 1019.3mb 44f
10:30pm 10 14 mph 1019.3mb 44f
10:20pm 10 14 mph 1019.3mb 43f
10:10pm 10 14 mph 1019.3mb 43f
10:00pm 10 15 mph 1019.3mb 44f
9:40pm 9 15 mph 1019.3mb 44f
9:30pm 11 15 mph 1019.3mb 44f
9:20pm 10 15 mph 1019mb 44f
9:10pm 11 16 mph 1019mb 44f
9:00pm 13 16 mph 1019mb 43f
8:40pm 14 17 mph 1019mb 44f
8:30pm 15 18 mph 1019mb 44f
8:20pm 13 18 mph 1019mb 44f
8:10pm 14 20 mph 1019mb 44f
8:00pm 15 20 mph 1019mb 44f
7:40pm 15 22 mph 1019mb 44f
7:30pm 17 24 mph 1019mb 44f
7:20pm 16 22 mph 1019mb 44f
7:10pm 17 22 mph 1018.6mb 45f
7:00pm 17 22 mph 1018.6mb 45f
6:40pm 17 22 mph 1018.6mb 45f
6:30pm 16 20 mph 1018.6mb 45f
6:20pm 17 22 mph 1018.6mb 45f
6:10pm 18 24 mph 1018.3mb 45f
6:00pm 18 22 mph 1018.3mb 45f
5:50pm 20 23 mph 1017.9mb 45f
5:40pm 18 22 mph 1017.9mb 45f
5:30pm 18 22 mph 1017.9mb 45f
5:20pm 18 23 mph 1017.6mb 45f
5:10pm 22 25 mph 1017.6mb 45f
5:00pm 18 24 mph 1017.3mb 45f
4:50pm 21 26 mph 1017.3mb 45f
4:40pm 21 25 mph 1017.3mb 45f
4:30pm 18 24 mph 1016.9mb 45f
4:20pm 20 24 mph 1016.9mb 46f
4:10pm 22 25 mph 1016.9mb 46f
4:00pm 21 25 mph 1016.9mb 46f
3:50pm 22 26 mph 1016.6mb 46f
3:40pm 22 25 mph 1016.6mb 46f
3:30pm 22 24 mph 1016.6mb 46f
3:20pm 20 26 mph 1016.3mb 46f
3:10pm 20 24 mph 1016.3mb 46f
3:00pm 21 24 mph 1016.3mb 46f
2:50pm 17 23 mph 1015.9mb 46f
2:40pm 18 24 mph 1015.9mb 46f
2:30pm 22 25 mph 1015.6mb 46f
2:20pm 21 25 mph 1015.6mb 46f
2:10pm 20 24 mph 1015.6mb 46f
2:00pm 22 28 mph 1015.6mb 45f
1:50pm 20 25 mph 1015.2mb 45f
1:40pm 22 25 mph 1015.6mb 45f
1:30pm 21 28 mph 1015.2mb 45f
1:20pm 23 26 mph 1015.2mb 45f
1:10pm 24 28 mph 1015.2mb 45f
1:00pm 22 28 mph 1014.9mb 45f
12:50pm 17 25 mph 1014.9mb 45f
12:40pm 18 25 mph 1014.9mb 45f
12:30pm 22 24 mph 1014.9mb 45f
12:20pm 21 25 mph 1014.6mb 46f
12:10pm 22 26 mph 1014.6mb 46f
12:00pm 23 26 mph 1014.6mb 46f
11:50am 23 26 mph 1014.6mb 46f
11:40am 22 25 mph 1014.2mb 45f
11:30am 20 24 mph 1014.2mb 46f
11:20am 21 26 mph 1014.2mb 45f
11:10am 25 29 mph 1014.2mb 45f
11:00am 21 25 mph 1013.9mb 45f
10:50am 20 29 mph 1013.9mb 44f
10:40am 25 28 mph 1013.9mb 44f
10:30am 23 29 mph 1013.9mb 44f
10:26am 23 29 mph 1013.5mb 44f
10:20am 20 28 mph 1013.5mb 44f
10:10am 22 28 mph 1013.5mb 45f
10:00am 21 26 mph 1013.2mb 45f
9:50am 20 28 mph 1013.2mb 45f
9:40am 20 25 mph 1012.9mb 45f
9:30am 23 26 mph 1012.9mb 45f
9:20am 21 26 mph 1012.9mb 45f
9:10am 22 26 mph 1012.5mb 45f
9:00am 23 28 mph 1012.5mb 45f
8:50am 22 28 mph 1012.2mb 45f
8:40am 23 29 mph 1012.2mb 45f
8:30am 24 29 mph 1012.2mb 45f
8:29am 22 29 mph 1011.9mb 45f
8:20am 23 28 mph 1011.9mb 45f
8:10am 22 29 mph 1011.9mb 45f
8:00am 22 26 mph 1011.5mb 45f
7:50am 24 31 mph 1011.5mb 45f
7:40am 25 32 mph 1011.2mb 45f
7:30am 26 31 mph 1010.8mb 44f
7:20am 23 29 mph 1010.8mb 44f
7:10am 26 32 mph 1010.8mb 44f
7:00am 26 34 mph 1010.8mb 45f
6:50am 25 32 mph 1010.5mb 45f
6:40am 29 36 mph 1010.5mb 45f
6:30am 26 32 mph 1010.2mb 45f
6:20am 30 34 mph 1010.2mb 45f
6:10am 25 31 mph 1010.2mb 45f
6:00am 28 32 mph 1010.2mb 45f
5:50am 26 31 mph 1009.8mb 46f
5:40am 26 32 mph 1009.8mb 46f
5:30am 29 33 mph 1009.8mb 46f
5:20am 31 34 mph 1009.5mb 46f
5:10am 29 34 mph 1009.5mb 46f
5:00am 28 34 mph 1009.5mb 46f
4:50am 30 34 mph 1009.1mb 46f
4:40am 26 31 mph 1009.1mb 45f
4:30am 26 31 mph 1009.1mb 45f
4:20am 24 33 mph 1009.1mb 45f
4:10am 30 34 mph 1008.8mb 46f
4:00am 28 40 mph 1008.8mb 46f
3:50am 31 37 mph 1008.5mb 47f
3:40am 31 37 mph 1008.5mb 47f
3:30am 31 37 mph 1008.1mb 47f
3:20am 31 37 mph 1008.1mb 48f
3:10am 33 39 mph 1008.1mb 48f
3:00am 30 34 mph 1008.1mb 48f
2:56am 30
mph
1008.1mb 48f
2:50am 29 36 mph 1008.1mb 48f
2:40am 30 36 mph 1008.1mb 48f
2:30am 33 37 mph 1007.8mb 48f
2:20am 32 37 mph 1007.8mb 48f
2:10am 33 38 mph 1007.8mb 48f
2:00am 31 37 mph 1007.8mb 48f
1:56am 31
mph
1007.8mb 49f
1:50am 31 36 mph 1007.5mb 49f
1:40am 33 37 mph 1007.5mb 49f
1:30am 31 39 mph 1007.5mb 49f
1:20am 32 38 mph 1007.5mb 49f
1:10am 33 38 mph 1007.5mb 49f
1:00am 31 36 mph 1007.1mb 49f
12:55am 31
mph
1007.5mb 49f
12:50am 30 36 mph 1007.5mb 49f
12:40am 29 37 mph 1007.5mb 49f
12:30am 31 34 mph 1007.5mb 49f
12:20am 30 34 mph 1007.5mb 49f
12:10am 29 36 mph 1007.5mb 49f
12:00am 30 34 mph 1007.5mb 49f
Tue 10/28 11:54pm 30
mph
1007.8mb 49f
11:50pm 31 38 mph 1007.8mb 49f
11:40pm 32 37 mph 1007.5mb 49f
11:30pm 32 37 mph 1007.8mb 49f
11:20pm 32 38 mph 1007.8mb 49f
11:10pm 30 39 mph 1007.8mb 49f
11:00pm 32 37 mph 1007.8mb 49f
10:54pm 31
mph
1007.8mb 49f
10:50pm 32 38 mph 1007.8mb 49f
10:40pm 30 37 mph 1008.1mb 49f
10:30pm 33 38 mph 1008.1mb 49f
10:20pm 32 38 mph 1008.1mb 49f
10:10pm 33 37 mph 1008.1mb 49f
10:00pm 32 38 mph 1008.1mb 49f
9:54pm 33
mph
1008.1mb 49f
9:50pm 33 37 mph 1008.1mb 49f
9:40pm 32 38 mph 1008.1mb 49f
9:30pm 33 39 mph 1008.1mb 49f
9:20pm 36 41 mph 1008.1mb 49f
9:10pm 32 41 mph 1007.8mb 49f
9:00pm 32 40 mph 1007.8mb 49f
8:50pm 32 39 mph 1007.8mb 50f
8:40pm 36 40 mph 1007.8mb 50f
8:30pm 34 39 mph 1007.8mb 50f
8:20pm 31 39 mph 1008.1mb 50f
8:10pm 32 39 mph 1007.8mb 50f
8:00pm 32 36 mph 1007.8mb 50f
7:58pm 32
mph
1007.8mb 50f
7:50pm 30 37 mph 1007.8mb 50f
7:40pm 30 38 mph 1008.1mb 50f
7:30pm 30 36 mph 1007.8mb 50f
7:20pm 32 38 mph 1007.8mb 50f
7:10pm 32 38 mph 1007.5mb 50f
7:00pm 34 41 mph 1007.5mb 50f
6:58pm 33 40 mph 1007.5mb 50f
6:50pm 36 43 mph 1007.5mb 50f
6:40pm 34 40 mph 1007.5mb 51f
6:30pm 34 44 mph 1007.1mb 51f
6:20pm 39 44 mph 1006.8mb 51f
6:10pm 36 44 mph 1006.8mb 51f
6:00pm 37 45 mph 1006.4mb 51f
5:57pm 36 41 mph 1006.4mb 51f
5:50pm 34 43 mph 1006.4mb 51f
5:40pm 36 43 mph 1006.1mb 51f
5:30pm 32 40 mph 1006.1mb 51f
5:20pm 33 41 mph 1006.1mb 51f
5:10pm 36 40 mph 1006.1mb 51f
5:00pm 33 45 mph 1006.1mb 51f
4:55pm 38 41 mph 1005.8mb 51f
4:50pm 34 40 mph 1005.8mb 51f
4:40pm 34 43 mph 1005.8mb 51f
4:30pm 36 40 mph 1005.8mb 51f
4:20pm 25 32 mph 1005.8mb 50f
4:10pm 31 43 mph 1005.4mb 49f
4:00pm 38 49 mph 1005.8mb 49f
3:50pm 29 37 mph 1005.1mb 52f
3:40pm 28 37 mph 1005.1mb 52f
3:30pm 29 43 mph 1005.1mb 53f
3:20pm 32 39 mph 1005.1mb 53f
3:10pm 30 41 mph 1005.1mb 53f
3:00pm 31 43 mph 1005.1mb 53f
2:50pm 30 37 mph 1005.1mb 53f
2:40pm 25 36 mph 1004.7mb 53f
2:30pm 31 38 mph 1004.7mb 53f
2:20pm 30 40 mph 1004.7mb 53f
2:10pm 30 38 mph 1004.4mb 53f
2:05pm 31 34 mph 1004.4mb 53f
2:00pm 30 37 mph 1004.4mb 53f
1:50pm 33 39 mph 1004.1mb 53f
1:40pm 30 37 mph 1004.1mb 53f
1:30pm 31 38 mph 1004.1mb 53f
1:20pm 29 36 mph 1004.1mb 53f
1:10pm 28 32 mph 1003.7mb 53f
1:05pm 26 30 mph 1003.7mb 53f
1:00pm 29 34 mph 1003.7mb 53f
12:50pm 29 32 mph 1003.7mb 53f
12:40pm 28 33 mph 1003.7mb 53f
12:30pm 23 31 mph 1003.7mb 52f
12:20pm 26 30 mph 1003.7mb 53f
12:10pm 25 30 mph 1003.7mb 52f
12:04pm 23 29 mph 1003.7mb 52f
12:00pm 28 32 mph 1003.7mb 52f
11:50am 25 31 mph 1003.7mb 52f
11:40am 24 30 mph 1003.7mb 52f
11:30am 25 30 mph 1003.7mb 52f
11:20am 26 32 mph 1003.7mb 52f
11:10am 26 32 mph 1003.7mb 52f
11:00am 25 32 mph 1003.4mb 52f
10:50am 26 36 mph 1003.4mb 51f
10:40am 30 37 mph 1003.4mb 51f
10:30am 31 38 mph 1003.4mb 52f
10:20am 33 39 mph 1003mb 52f
10:10am 29 33 mph 1002.7mb 52f
10:00am 25 30 mph 1002.4mb 52f
9:50am 24 31 mph 1002mb 52f
9:40am 28 31 mph 1002.4mb 52f
9:30am 25 30 mph 1002.4mb 52f
9:20am 25 30 mph 1002mb 52f
9:10am 25 30 mph 1002mb 52f
9:00am 26 31 mph 1002mb 52f
8:53am 28 29 mph 1001.7mb 52f
8:50am 29 32 mph 1001.7mb 52f
8:41am 26
mph
1001.7mb 52f
8:40am 26 30 mph 1001.7mb 52f
8:30am 25 29 mph 1001.7mb 52f
8:20am 26 31 mph 1001.7mb 52f
8:10am 25 30 mph 1001.7mb 52f
8:00am 24 29 mph 1001.7mb 52f
7:53am 24 29 mph 1001.7mb 52f
7:50am 23 28 mph 1001.7mb 52f
7:40am 24 28 mph 1001.7mb 52f
7:30am 25 32 mph 1001.7mb 52f
7:20am 29 32 mph 1001.4mb 52f
7:10am 28 32 mph 1001mb 52f
7:00am 25 29 mph 1001mb 51f
6:50am 28 31 mph 1001.4mb 51f
6:44am 29 31 mph 1001mb 52f
6:40am 28 31 mph 1001mb 52f
6:30am 25 29 mph 1000.3mb 52f
6:20am 25 32 mph 1000.3mb 53f
6:10am 28 33 mph 1000.3mb 53f
6:00am 30 36 mph 1000mb 54f
5:50am 28 38 mph 999.7mb 55f
5:43am 29
mph
999.7mb 56f
5:40am 28 33 mph 999.7mb 56f
5:30am 24 31 mph 999.7mb 56f
5:20am 21 29 mph 999.3mb 56f
5:10am 17 24 mph 999.3mb 56f
5:00am 18 29 mph 999.3mb 56f
4:50am 30 36 mph 999.3mb 58f
4:42am 17 34 mph 999mb 59f
4:40am 16 18 mph 999.3mb 59f
4:30am 8 15 mph 999mb 58f
4:20am 8 15 mph 998.6mb 57f
4:10am 7 16 mph 999mb 57f
4:00am 7 16 mph 999mb 57f
3:50am 7 15 mph 999mb 57f
3:40am 7 13 mph 999mb 56f
3:30am 7 15 mph 999mb 56f
3:20am 8 16 mph 999mb 57f
3:10am 9 17 mph 999.3mb 57f
3:00am 8 16 mph 999.3mb 57f
2:50am 8 16 mph 999.7mb 57f
2:40am 8 16 mph 999.7mb 56f
2:30am 7 15 mph 1000mb 56f
2:20am 7 14 mph 1000mb 56f
2:10am 8 15 mph 1000mb 55f
2:00am 7 14 mph 1000.3mb 55f
1:50am 6 13 mph 1000.3mb 55f
1:40am 5 9 mph 1000.7mb 55f
1:30am 1 8 mph 1001mb 54f
1:20am 3 10 mph 1001mb 54f
1:10am 6 11 mph 1001.4mb 54f
1:00am 3 8 mph 1001.4mb 54f
12:50am 3 7 mph 1001.7mb 53f
12:40am 3 10 mph 1001.4mb 53f
12:30am 2 10 mph 1001.7mb 53f
12:20am 5 11 mph 1001.7mb 53f
12:10am 6 11 mph 1001.7mb 53f
12:00am 5 8 mph 1002mb 53f
Mon 10/27 11:50pm 2 9 mph 1002.4mb 53f
11:40pm 3 9 mph 1002.4mb 52f
11:30pm 1 8 mph 1002.4mb 52f
11:20pm 2 13 mph 1002.7mb 52f
11:10pm 7 9 mph 1002.4mb 52f
11:00pm 5 7 mph 1002.7mb 52f
10:50pm 5 10 mph 1003mb 53f
10:40pm 3 10 mph 1002.7mb 52f
10:30pm 6 9 mph 1002.7mb 52f
10:20pm 3 9 mph 1003.4mb 52f
10:10pm 5 9 mph 1003.4mb 52f
10:00pm 6 9 mph 1003.4mb 52f
9:50pm 5 9 mph 1003.4mb 52f
9:40pm 5 9 mph 1003.7mb 52f
9:30pm 6 10 mph 1003.7mb 52f
9:20pm 3 9 mph 1003.7mb 52f
9:10pm 3 10 mph 1003.7mb 52f
9:00pm 7 11 mph 1003.7mb 53f
8:50pm 6 11 mph 1004.1mb 52f
8:40pm 5 9 mph 1004.1mb 52f
8:30pm 3 9 mph 1004.1mb 53f
8:20pm 6 10 mph 1004.1mb 52f
8:10pm 3 10 mph 1004.1mb 52f
8:00pm 3 8 mph 1004.1mb 52f
7:50pm 3 13 mph 1004.1mb 52f
7:40pm 3 13 mph 1004.1mb 52f
7:30pm 6 14 mph 1004.1mb 52f
7:20pm 6 15 mph 1004.1mb 52f
7:10pm 6 13 mph 1004.1mb 52f
7:00pm 7 13 mph 1004.1mb 52f
6:50pm 6 15 mph 1004.1mb 52f
6:40pm 8 15 mph 1004.1mb 52f
6:30pm 7 15 mph 1004.1mb 52f
6:20pm 9 18 mph 1004.1mb 51f
6:10pm 8 15 mph 1004.1mb 51f
6:00pm 6 14 mph 1004.4mb 51f
5:50pm 7 15 mph 1004.4mb 51f
5:40pm 7 13 mph 1004.7mb 51f
5:30pm 6 14 mph 1004.7mb 51f
5:20pm 6 13 mph 1004.7mb 51f
5:10pm 6 13 mph 1005.1mb 51f
5:00pm 5 13 mph 1005.1mb 51f
4:50pm 6 11 mph 1005.1mb 50f
4:40pm 3 11 mph 1005.1mb 50f
4:30pm 5 10 mph 1005.1mb 50f
4:20pm 2 8 mph 1005.4mb 50f
4:10pm 2 8 mph 1005.1mb 50f
4:00pm 5 11 mph 1004.7mb 50f
3:50pm 6 13 mph 1004.7mb 51f
3:40pm 3 9 mph 1004.7mb 51f
3:30pm  -  8 mph 1004.7mb 50f
3:20pm 3 23 mph 1004.7mb 51f
3:10pm 8 23 mph 1004.1mb 52f
3:00pm 8 20 mph 1003.7mb 52f
2:50pm 6 18 mph 1004.1mb 53f
2:40pm 5 17 mph 1004.1mb 53f
2:30pm 7 20 mph 1004.4mb 53f
2:20pm 8 18 mph 1004.4mb 53f
2:10pm 8 18 mph 1004.4mb 54f
2:00pm 8 20 mph 1004.7mb 53f
1:50pm 8 18 mph 1005.1mb 53f
1:43pm 9 24 mph 1004.7mb 53f
1:40pm 6 22 mph 1004.7mb 53f
1:30pm 9 18 mph 1005.1mb 53f
1:20pm 8 15 mph 1005.4mb 53f
1:10pm 10 21 mph 1005.1mb 52f
1:00pm 11 24 mph 1005.8mb 52f
12:50pm 13 23 mph 1005.8mb 52f
12:42pm 10 23 mph 1006.1mb 51f
12:40pm 8 20 mph 1006.1mb 51f
12:30pm 9 20 mph 1006.4mb 51f
12:20pm 9 23 mph 1006.8mb 50f
12:10pm 13 23 mph 1007.1mb 49f
12:00pm 11 23 mph 1007.5mb 49f
11:50am 11 25 mph 1007.5mb 49f
11:42am 13 25 mph 1008.1mb 47f
11:40am 7 21 mph 1008.1mb 47f
11:30am 8 23 mph 1008.5mb 47f
11:20am 15 23 mph 1008.5mb 47f
11:10am 10 23 mph 1009.1mb 47f
11:00am 11 25 mph 1009.5mb 47f
10:50am 9 23 mph 1009.5mb 45f
10:42am 8 23 mph 1009.5mb 45f
10:40am 8 17 mph 1009.5mb 45f
10:30am 8 18 mph 1010.2mb 44f
10:20am 9 23 mph 1010.2mb 44f
10:10am 11 21 mph 1010.5mb 44f
10:00am 10 17 mph 1010.5mb 44f
9:50am 8 20 mph 1010.5mb 44f
9:41am 11 23 mph 1010.5mb 44f
9:40am 11 23 mph 1010.5mb 44f
9:30am 8 18 mph 1010.5mb 43f
9:20am 10 17 mph 1010.5mb 43f
9:10am 9 17 mph 1010.8mb 43f
9:00am 9 17 mph 1011.2mb 43f
8:50am 13 21 mph 1011.5mb 43f
8:41am 15 20 mph 1011.5mb 43f
8:40am 15 18 mph 1011.5mb 43f
8:30am 14 20 mph 1011.5mb 43f
8:20am 8 18 mph 1011.2mb 43f
8:10am 9 14 mph 1011.2mb 45f
8:00am 6 11 mph 1010.8mb 45f
7:50am 7 14 mph 1010.5mb 44f
7:40am 7 16 mph 1010.5mb 44f
7:30am 7 14 mph 1009.8mb 44f
7:20am 5 13 mph 1009.8mb 44f
7:10am 10 18 mph 1009.5mb 44f
7:00am 9 20 mph 1009.8mb 44f
6:50am 7 16 mph 1009.8mb 43f
6:40am 9 15 mph 1010.5mb 43f
6:30am 7 18 mph 1010.5mb 43f
6:20am 10 16 mph 1010.5mb 43f
6:10am 6 13 mph 1010.8mb 43f
6:00am 6 14 mph 1011.2mb 44f
5:50am 8 17 mph 1011.2mb 44f
5:40am 7 16 mph 1011.2mb 44f
5:30am 8 16 mph 1011.5mb 44f
5:20am 5 11 mph 1011.5mb 45f
5:10am 5 14 mph 1011.2mb 44f
5:00am 5 14 mph 1011.2mb 44f
4:50am 6 14 mph 1011.5mb 44f
4:40am 7 14 mph 1011.5mb 44f
4:30am 5 13 mph 1011.2mb 44f
4:20am 6 13 mph 1011.2mb 44f
4:10am 6 13 mph 1011.5mb 44f
4:00am 6 11 mph 1011.5mb 43f
3:50am 5 13 mph 1011.9mb 43f
3:40am 6 11 mph 1012.2mb 42f
3:30am 5 8 mph 1012.2mb 42f
3:20am 3 7 mph 1012.2mb 42f
3:10am 5 10 mph 1012.5mb 42f
3:00am 5 9 mph 1012.5mb 42f
2:50am 5 10 mph 1012.5mb 42f
2:40am 5 8 mph 1012.5mb 42f
2:30am 3 9 mph 1012.5mb 42f
2:20am 3 7 mph 1012.5mb 42f
2:10am 3 8 mph 1012.5mb 41f
2:00am 3 7 mph 1012.5mb 41f
1:50am 2 7 mph 1012.5mb 40f
1:40am 3 6 mph 1012.5mb 40f
1:30am 2 5 mph 1012.9mb 40f
1:20am 2 5 mph 1012.9mb 40f
1:10am 3 6 mph 1013.2mb 40f
1:00am 5 8 mph 1013.2mb 41f
12:50am 5 8 mph 1013.2mb 41f
12:40am 3 8 mph 1013.2mb 41f
12:30am 5 8 mph 1013.2mb 42f
12:20am 3 7 mph 1013.2mb 41f
12:10am 3 6 mph 1013.5mb 42f
12:00am 3 8 mph 1013.5mb 41f
Sun 10/26 11:40pm 3 7 mph 1013.2mb 41f
11:30pm 5 7 mph 1013.5mb 41f